sensor_id;sensor_type;location;lat;lon;timestamp;pressure;altitude;pressure_sealevel;temperature
53667;BMP280;39568;51.026;5.468;2023-02-26T00:01:52;100846.66;;;-1.77
53667;BMP280;39568;51.026;5.468;2023-02-26T00:04:29;100849.97;;;-1.76
53667;BMP280;39568;51.026;5.468;2023-02-26T00:06:55;100855.84;;;-1.65
53667;BMP280;39568;51.026;5.468;2023-02-26T00:09:22;100845.97;;;-1.81
53667;BMP280;39568;51.026;5.468;2023-02-26T00:11:49;100844.53;;;-1.89
53667;BMP280;39568;51.026;5.468;2023-02-26T00:14:16;100843.78;;;-1.90
53667;BMP280;39568;51.026;5.468;2023-02-26T00:16:46;100850.06;;;-1.83
53667;BMP280;39568;51.026;5.468;2023-02-26T00:19:16;100858.09;;;-1.67
53667;BMP280;39568;51.026;5.468;2023-02-26T00:21:44;100854.78;;;-1.71
53667;BMP280;39568;51.026;5.468;2023-02-26T00:24:11;100856.50;;;-1.58
53667;BMP280;39568;51.026;5.468;2023-02-26T00:26:38;100866.47;;;-1.49
53667;BMP280;39568;51.026;5.468;2023-02-26T00:29:05;100868.94;;;-1.72
53667;BMP280;39568;51.026;5.468;2023-02-26T00:31:32;100859.22;;;-1.68
53667;BMP280;39568;51.026;5.468;2023-02-26T00:33:59;100874.25;;;-1.79
53667;BMP280;39568;51.026;5.468;2023-02-26T00:36:33;100875.47;;;-1.95
53667;BMP280;39568;51.026;5.468;2023-02-26T00:39:25;100891.34;;;-2.16
53667;BMP280;39568;51.026;5.468;2023-02-26T00:41:55;100890.28;;;-2.29
53667;BMP280;39568;51.026;5.468;2023-02-26T00:44:22;100891.09;;;-2.39
53667;BMP280;39568;51.026;5.468;2023-02-26T00:46:54;100888.56;;;-2.46
53667;BMP280;39568;51.026;5.468;2023-02-26T00:49:30;100891.22;;;-2.53
53667;BMP280;39568;51.026;5.468;2023-02-26T00:52:05;100894.25;;;-2.65
53667;BMP280;39568;51.026;5.468;2023-02-26T00:54:37;100897.66;;;-2.72
53667;BMP280;39568;51.026;5.468;2023-02-26T00:57:04;100890.63;;;-2.79
53667;BMP280;39568;51.026;5.468;2023-02-26T00:59:31;100890.66;;;-2.86
53667;BMP280;39568;51.026;5.468;2023-02-26T01:01:58;100888.47;;;-2.91
53667;BMP280;39568;51.026;5.468;2023-02-26T01:04:25;100880.25;;;-2.86
53667;BMP280;39568;51.026;5.468;2023-02-26T01:06:54;100890.59;;;-2.75
53667;BMP280;39568;51.026;5.468;2023-02-26T01:09:23;100897.22;;;-2.60
53667;BMP280;39568;51.026;5.468;2023-02-26T01:11:53;100895.59;;;-2.40
53667;BMP280;39568;51.026;5.468;2023-02-26T01:14:21;100891.56;;;-2.48
53667;BMP280;39568;51.026;5.468;2023-02-26T01:16:52;100889.66;;;-2.40
53667;BMP280;39568;51.026;5.468;2023-02-26T01:19:28;100899.84;;;-2.63
53667;BMP280;39568;51.026;5.468;2023-02-26T01:22:03;100899.91;;;-2.78
53667;BMP280;39568;51.026;5.468;2023-02-26T01:24:34;100899.50;;;-2.72
53667;BMP280;39568;51.026;5.468;2023-02-26T01:27:03;100904.78;;;-2.80
53667;BMP280;39568;51.026;5.468;2023-02-26T01:29:31;100897.31;;;-2.78
53667;BMP280;39568;51.026;5.468;2023-02-26T01:32:02;100902.47;;;-2.70
53667;BMP280;39568;51.026;5.468;2023-02-26T01:34:35;100899.47;;;-2.62
53667;BMP280;39568;51.026;5.468;2023-02-26T01:37:07;100894.13;;;-2.44
53667;BMP280;39568;51.026;5.468;2023-02-26T01:39:39;100888.75;;;-2.19
53667;BMP280;39568;51.026;5.468;2023-02-26T01:42:14;100890.88;;;-2.07
53667;BMP280;39568;51.026;5.468;2023-02-26T01:44:49;100898.34;;;-2.09
53667;BMP280;39568;51.026;5.468;2023-02-26T01:47:22;100896.19;;;-2.18
53667;BMP280;39568;51.026;5.468;2023-02-26T01:49:51;100901.38;;;-2.14
53667;BMP280;39568;51.026;5.468;2023-02-26T01:55:32;100899.06;;;-2.05
53667;BMP280;39568;51.026;5.468;2023-02-26T01:58:01;100907.19;;;-2.00
53667;BMP280;39568;51.026;5.468;2023-02-26T02:00:29;100910.72;;;-2.17
53667;BMP280;39568;51.026;5.468;2023-02-26T02:02:56;100905.88;;;-2.18
53667;BMP280;39568;51.026;5.468;2023-02-26T02:05:28;100919.78;;;-1.91
53667;BMP280;39568;51.026;5.468;2023-02-26T02:07:57;100924.22;;;-1.84
53667;BMP280;39568;51.026;5.468;2023-02-26T02:10:25;100927.56;;;-1.88
53667;BMP280;39568;51.026;5.468;2023-02-26T02:12:57;100923.50;;;-1.92
53667;BMP280;39568;51.026;5.468;2023-02-26T02:15:36;100925.75;;;-1.91
53667;BMP280;39568;51.026;5.468;2023-02-26T02:18:10;100929.44;;;-1.84
53667;BMP280;39568;51.026;5.468;2023-02-26T02:20:55;100939.19;;;-1.96
53667;BMP280;39568;51.026;5.468;2023-02-26T02:23:29;100947.31;;;-1.87
53667;BMP280;39568;51.026;5.468;2023-02-26T02:26:17;100938.28;;;-1.75
53667;BMP280;39568;51.026;5.468;2023-02-26T02:29:08;100954.66;;;-1.71
53667;BMP280;39568;51.026;5.468;2023-02-26T02:31:45;100949.47;;;-1.74
53667;BMP280;39568;51.026;5.468;2023-02-26T02:34:18;100948.69;;;-1.71
53667;BMP280;39568;51.026;5.468;2023-02-26T02:36:49;100956.47;;;-1.68
53667;BMP280;39568;51.026;5.468;2023-02-26T02:39:20;100955.38;;;-1.70
53667;BMP280;39568;51.026;5.468;2023-02-26T02:41:51;100956.88;;;-1.69
53667;BMP280;39568;51.026;5.468;2023-02-26T02:44:22;100953.06;;;-1.61
53667;BMP280;39568;51.026;5.468;2023-02-26T02:46:54;100954.69;;;-1.74
53667;BMP280;39568;51.026;5.468;2023-02-26T02:49:25;100951.69;;;-1.73
53667;BMP280;39568;51.026;5.468;2023-02-26T02:51:54;100956.13;;;-1.70
53667;BMP280;39568;51.026;5.468;2023-02-26T02:54:27;100955.44;;;-1.74
53667;BMP280;39568;51.026;5.468;2023-02-26T02:57:00;100968.84;;;-1.75
53667;BMP280;39568;51.026;5.468;2023-02-26T02:59:32;100964.28;;;-1.68
53667;BMP280;39568;51.026;5.468;2023-02-26T03:02:08;100969.59;;;-1.75
53667;BMP280;39568;51.026;5.468;2023-02-26T03:04:36;100971.84;;;-1.77
53667;BMP280;39568;51.026;5.468;2023-02-26T03:07:04;100968.09;;;-1.76
53667;BMP280;39568;51.026;5.468;2023-02-26T03:09:31;100965.53;;;-1.79
53667;BMP280;39568;51.026;5.468;2023-02-26T03:11:58;100962.97;;;-1.87
53667;BMP280;39568;51.026;5.468;2023-02-26T03:14:25;100964.47;;;-1.85
53667;BMP280;39568;51.026;5.468;2023-02-26T03:17:16;100968.25;;;-1.94
53667;BMP280;39568;51.026;5.468;2023-02-26T03:19:59;100982.47;;;-2.02
53667;BMP280;39568;51.026;5.468;2023-02-26T03:22:34;100975.75;;;-2.03
53667;BMP280;39568;51.026;5.468;2023-02-26T03:25:08;100958.69;;;-2.11
53667;BMP280;39568;51.026;5.468;2023-02-26T03:27:43;100984.41;;;-2.13
53667;BMP280;39568;51.026;5.468;2023-02-26T03:30:15;100981.09;;;-2.17
53667;BMP280;39568;51.026;5.468;2023-02-26T03:32:51;100988.59;;;-2.26
53667;BMP280;39568;51.026;5.468;2023-02-26T03:35:25;100996.06;;;-2.28
53667;BMP280;39568;51.026;5.468;2023-02-26T03:37:57;100996.78;;;-2.35
53667;BMP280;39568;51.026;5.468;2023-02-26T03:40:27;101005.81;;;-2.46
53667;BMP280;39568;51.026;5.468;2023-02-26T03:42:58;101009.91;;;-2.45
53667;BMP280;39568;51.026;5.468;2023-02-26T03:45:28;101011.00;;;-2.46
53667;BMP280;39568;51.026;5.468;2023-02-26T03:47:58;101017.72;;;-2.45
53667;BMP280;39568;51.026;5.468;2023-02-26T03:50:30;101007.28;;;-2.45
53667;BMP280;39568;51.026;5.468;2023-02-26T03:52:59;101020.59;;;-2.29
53667;BMP280;39568;51.026;5.468;2023-02-26T03:55:30;101014.63;;;-2.29
53667;BMP280;39568;51.026;5.468;2023-02-26T03:57:58;101016.88;;;-2.24
53667;BMP280;39568;51.026;5.468;2023-02-26T04:00:25;101008.38;;;-2.36
53667;BMP280;39568;51.026;5.468;2023-02-26T04:02:58;101023.66;;;-2.41
53667;BMP280;39568;51.026;5.468;2023-02-26T04:05:27;101032.56;;;-2.42
53667;BMP280;39568;51.026;5.468;2023-02-26T04:07:55;101029.59;;;-2.37
53667;BMP280;39568;51.026;5.468;2023-02-26T04:10:29;101037.44;;;-2.44
53667;BMP280;39568;51.026;5.468;2023-02-26T04:12:58;101043.03;;;-2.49
53667;BMP280;39568;51.026;5.468;2023-02-26T04:15:26;101041.16;;;-2.45
53667;BMP280;39568;51.026;5.468;2023-02-26T04:17:52;101038.94;;;-2.43
53667;BMP280;39568;51.026;5.468;2023-02-26T04:20:21;101039.97;;;-2.30
53667;BMP280;39568;51.026;5.468;2023-02-26T04:22:47;101048.91;;;-2.24
53667;BMP280;39568;51.026;5.468;2023-02-26T04:25:14;101057.84;;;-2.32
53667;BMP280;39568;51.026;5.468;2023-02-26T04:27:41;101058.59;;;-2.32
53667;BMP280;39568;51.026;5.468;2023-02-26T04:30:09;101051.16;;;-2.37
53667;BMP280;39568;51.026;5.468;2023-02-26T04:32:36;101063.06;;;-2.32
53667;BMP280;39568;51.026;5.468;2023-02-26T04:35:03;101060.06;;;-2.27
53667;BMP280;39568;51.026;5.468;2023-02-26T04:37:31;101065.28;;;-2.31
53667;BMP280;39568;51.026;5.468;2023-02-26T04:39:58;101060.47;;;-2.39
53667;BMP280;39568;51.026;5.468;2023-02-26T04:42:24;101073.91;;;-2.44
53667;BMP280;39568;51.026;5.468;2023-02-26T04:44:51;101080.59;;;-2.47
53667;BMP280;39568;51.026;5.468;2023-02-26T04:47:18;101071.31;;;-2.48
53667;BMP280;39568;51.026;5.468;2023-02-26T04:49:44;101082.47;;;-2.40
53667;BMP280;39568;51.026;5.468;2023-02-26T04:52:11;101076.91;;;-2.49
53667;BMP280;39568;51.026;5.468;2023-02-26T04:54:39;101078.78;;;-2.53
53667;BMP280;39568;51.026;5.468;2023-02-26T04:57:06;101082.50;;;-2.51
53667;BMP280;39568;51.026;5.468;2023-02-26T04:59:33;101082.50;;;-2.51
53667;BMP280;39568;51.026;5.468;2023-02-26T05:02:00;101085.84;;;-2.50
53667;BMP280;39568;51.026;5.468;2023-02-26T05:04:26;101087.72;;;-2.58
53667;BMP280;39568;51.026;5.468;2023-02-26T05:06:53;101088.84;;;-2.52
53667;BMP280;39568;51.026;5.468;2023-02-26T05:09:20;101087.00;;;-2.58
53667;BMP280;39568;51.026;5.468;2023-02-26T05:11:48;101099.28;;;-2.59
53667;BMP280;39568;51.026;5.468;2023-02-26T05:14:15;101104.84;;;-2.64
53667;BMP280;39568;51.026;5.468;2023-02-26T05:16:42;101104.88;;;-2.71
53667;BMP280;39568;51.026;5.468;2023-02-26T05:19:08;101110.44;;;-2.65
53667;BMP280;39568;51.026;5.468;2023-02-26T05:21:35;101104.88;;;-2.71
53667;BMP280;39568;51.026;5.468;2023-02-26T05:24:02;101112.69;;;-2.78
53667;BMP280;39568;51.026;5.468;2023-02-26T05:26:29;101109.38;;;-2.86
53667;BMP280;39568;51.026;5.468;2023-02-26T05:28:57;101114.22;;;-2.88
53667;BMP280;39568;51.026;5.468;2023-02-26T05:31:24;101116.06;;;-2.85
53667;BMP280;39568;51.026;5.468;2023-02-26T05:33:51;101120.53;;;-2.89
53667;BMP280;39568;51.026;5.468;2023-02-26T05:36:18;101126.09;;;-2.90
53667;BMP280;39568;51.026;5.468;2023-02-26T05:38:44;101123.16;;;-2.92
53667;BMP280;39568;51.026;5.468;2023-02-26T05:41:11;101135.03;;;-2.98
53667;BMP280;39568;51.026;5.468;2023-02-26T05:43:38;101133.16;;;-3.01
53667;BMP280;39568;51.026;5.468;2023-02-26T05:46:06;101132.44;;;-3.05
53667;BMP280;39568;51.026;5.468;2023-02-26T05:48:33;101134.66;;;-3.04
53667;BMP280;39568;51.026;5.468;2023-02-26T05:51:00;101138.03;;;-3.03
53667;BMP280;39568;51.026;5.468;2023-02-26T05:53:27;101141.38;;;-3.03
53667;BMP280;39568;51.026;5.468;2023-02-26T05:55:54;101143.56;;;-2.98
53667;BMP280;39568;51.026;5.468;2023-02-26T05:58:20;101147.66;;;-2.93
53667;BMP280;39568;51.026;5.468;2023-02-26T06:00:47;101150.66;;;-2.98
53667;BMP280;39568;51.026;5.468;2023-02-26T06:03:15;101148.78;;;-3.01
53667;BMP280;39568;51.026;5.468;2023-02-26T06:05:42;101153.25;;;-3.05
53667;BMP280;39568;51.026;5.468;2023-02-26T06:08:09;101156.25;;;-3.00
53667;BMP280;39568;51.026;5.468;2023-02-26T06:10:36;101173.38;;;-2.92
53667;BMP280;39568;51.026;5.468;2023-02-26T06:13:03;101165.13;;;-2.94
53667;BMP280;39568;51.026;5.468;2023-02-26T06:15:30;101176.31;;;-2.90
53667;BMP280;39568;51.026;5.468;2023-02-26T06:17:56;101178.91;;;-2.93
53667;BMP280;39568;51.026;5.468;2023-02-26T06:20:24;101176.69;;;-3.05
53667;BMP280;39568;51.026;5.468;2023-02-26T06:22:52;101185.22;;;-2.98
53667;BMP280;39568;51.026;5.468;2023-02-26T06:25:18;101185.22;;;-2.98
53667;BMP280;39568;51.026;5.468;2023-02-26T06:27:45;101188.22;;;-2.96
53667;BMP280;39568;51.026;5.468;2023-02-26T06:30:12;101198.25;;;-2.98
53667;BMP280;39568;51.026;5.468;2023-02-26T06:32:39;101200.91;;;-2.91
53667;BMP280;39568;51.026;5.468;2023-02-26T06:35:06;101202.72;;;-2.95
53667;BMP280;39568;51.026;5.468;2023-02-26T06:37:35;101208.31;;;-2.89
53667;BMP280;39568;51.026;5.468;2023-02-26T06:40:02;101196.38;;;-2.97
53667;BMP280;39568;51.026;5.468;2023-02-26T06:42:29;101200.50;;;-2.89
53667;BMP280;39568;51.026;5.468;2023-02-26T06:44:56;101221.72;;;-2.80
53667;BMP280;39568;51.026;5.468;2023-02-26T06:47:23;101215.00;;;-2.74
53667;BMP280;39568;51.026;5.468;2023-02-26T06:49:50;101227.28;;;-2.67
53667;BMP280;39568;51.026;5.468;2023-02-26T06:52:16;101225.03;;;-2.65
53667;BMP280;39568;51.026;5.468;2023-02-26T06:54:45;101232.50;;;-2.57
53667;BMP280;39568;51.026;5.468;2023-02-26T06:57:12;101229.88;;;-2.50
53667;BMP280;39568;51.026;5.468;2023-02-26T06:59:38;101240.28;;;-2.46
53667;BMP280;39568;51.026;5.468;2023-02-26T07:02:05;101242.16;;;-2.43
53667;BMP280;39568;51.026;5.468;2023-02-26T07:04:32;101242.50;;;-2.27
53667;BMP280;39568;51.026;5.468;2023-02-26T07:06:58;101244.38;;;-2.17
53667;BMP280;39568;51.026;5.468;2023-02-26T07:09:25;101248.47;;;-2.16
53667;BMP280;39568;51.026;5.468;2023-02-26T07:11:53;101256.28;;;-2.12
53667;BMP280;39568;51.026;5.468;2023-02-26T07:14:20;101261.06;;;-2.04
53667;BMP280;39568;51.026;5.468;2023-02-26T07:16:46;101267.00;;;-1.85
53667;BMP280;39568;51.026;5.468;2023-02-26T07:19:13;101267.00;;;-1.82
53667;BMP280;39568;51.026;5.468;2023-02-26T07:21:40;101273.28;;;-1.72
53667;BMP280;39568;51.026;5.468;2023-02-26T07:24:07;101281.44;;;-1.63
53667;BMP280;39568;51.026;5.468;2023-02-26T07:26:34;101280.25;;;-1.52
53667;BMP280;39568;51.026;5.468;2023-02-26T07:29:02;101276.84;;;-1.38
53667;BMP280;39568;51.026;5.468;2023-02-26T07:31:29;101290.97;;;-1.28
53667;BMP280;39568;51.026;5.468;2023-02-26T07:33:56;101293.59;;;-1.28
53667;BMP280;39568;51.026;5.468;2023-02-26T07:36:22;101287.56;;;-1.15
53667;BMP280;39568;51.026;5.468;2023-02-26T07:38:49;101300.91;;;-1.02
53667;BMP280;39568;51.026;5.468;2023-02-26T07:41:16;101301.22;;;-0.97
53667;BMP280;39568;51.026;5.468;2023-02-26T07:43:43;101305.22;;;-0.81
53667;BMP280;39568;51.026;5.468;2023-02-26T07:46:11;101306.59;;;-0.66
53667;BMP280;39568;51.026;5.468;2023-02-26T07:48:38;101308.03;;;-0.58
53667;BMP280;39568;51.026;5.468;2023-02-26T07:51:06;101301.63;;;-0.50
53667;BMP280;39568;51.026;5.468;2023-02-26T07:53:33;101311.66;;;-0.45
53667;BMP280;39568;51.026;5.468;2023-02-26T07:55:59;101315.69;;;-0.37
53667;BMP280;39568;51.026;5.468;2023-02-26T07:58:26;101325.00;;;-0.32
53667;BMP280;39568;51.026;5.468;2023-02-26T08:00:53;101320.41;;;-0.18
53667;BMP280;39568;51.026;5.468;2023-02-26T08:03:21;101322.91;;;-0.07
53667;BMP280;39568;51.026;5.468;2023-02-26T08:05:48;101329.66;;;-0.10
53667;BMP280;39568;51.026;5.468;2023-02-26T08:08:15;101332.94;;;-0.02
53667;BMP280;39568;51.026;5.468;2023-02-26T08:10:41;101342.56;;;0.08
53667;BMP280;39568;51.026;5.468;2023-02-26T08:13:08;101343.94;;;0.20
53667;BMP280;39568;51.026;5.468;2023-02-26T08:15:35;101344.88;;;0.33
53667;BMP280;39568;51.026;5.468;2023-02-26T08:18:02;101346.56;;;0.50
53667;BMP280;39568;51.026;5.468;2023-02-26T08:20:30;101350.44;;;0.69
53667;BMP280;39568;51.026;5.468;2023-02-26T08:22:57;101355.47;;;0.83
53667;BMP280;39568;51.026;5.468;2023-02-26T08:25:24;101351.81;;;1.30
53667;BMP280;39568;51.026;5.468;2023-02-26T08:27:50;101357.31;;;1.82
53667;BMP280;39568;51.026;5.468;2023-02-26T08:30:18;101365.78;;;2.29
53667;BMP280;39568;51.026;5.468;2023-02-26T08:32:44;101368.53;;;2.62
53667;BMP280;39568;51.026;5.468;2023-02-26T08:35:11;101377.34;;;3.04
53667;BMP280;39568;51.026;5.468;2023-02-26T08:37:39;101381.59;;;3.46
53667;BMP280;39568;51.026;5.468;2023-02-26T08:40:07;101388.22;;;4.62
53667;BMP280;39568;51.026;5.468;2023-02-26T08:42:35;101381.41;;;5.46
53667;BMP280;39568;51.026;5.468;2023-02-26T08:45:03;101388.00;;;5.85
53667;BMP280;39568;51.026;5.468;2023-02-26T08:47:30;101398.47;;;6.68
53667;BMP280;39568;51.026;5.468;2023-02-26T08:49:56;101400.53;;;6.64
53667;BMP280;39568;51.026;5.468;2023-02-26T08:52:23;101406.31;;;6.81
53667;BMP280;39568;51.026;5.468;2023-02-26T08:54:51;101403.38;;;6.79
53667;BMP280;39568;51.026;5.468;2023-02-26T08:57:18;101414.78;;;7.24
53667;BMP280;39568;51.026;5.468;2023-02-26T08:59:45;101411.22;;;7.46
53667;BMP280;39568;51.026;5.468;2023-02-26T09:02:12;101417.13;;;7.50
53667;BMP280;39568;51.026;5.468;2023-02-26T09:04:39;101432.44;;;8.15
53667;BMP280;39568;51.026;5.468;2023-02-26T09:07:06;101432.28;;;8.18
53667;BMP280;39568;51.026;5.468;2023-02-26T09:09:32;101446.72;;;8.83
53667;BMP280;39568;51.026;5.468;2023-02-26T09:12:00;101432.22;;;7.86
53667;BMP280;39568;51.026;5.468;2023-02-26T09:14:27;101454.28;;;8.99
53667;BMP280;39568;51.026;5.468;2023-02-26T09:16:54;101447.09;;;9.14
53667;BMP280;39568;51.026;5.468;2023-02-26T09:19:21;101447.72;;;10.06
53667;BMP280;39568;51.026;5.468;2023-02-26T09:21:47;101445.72;;;10.36
53667;BMP280;39568;51.026;5.468;2023-02-26T09:24:14;101457.16;;;10.42
53667;BMP280;39568;51.026;5.468;2023-02-26T09:26:41;101465.22;;;10.47
53667;BMP280;39568;51.026;5.468;2023-02-26T09:29:09;101466.31;;;10.96
53667;BMP280;39568;51.026;5.468;2023-02-26T09:31:37;101469.47;;;11.20
53667;BMP280;39568;51.026;5.468;2023-02-26T09:34:04;101483.50;;;10.74
53667;BMP280;39568;51.026;5.468;2023-02-26T09:36:31;101467.63;;;10.65
53667;BMP280;39568;51.026;5.468;2023-02-26T09:38:57;101484.66;;;11.34
53667;BMP280;39568;51.026;5.468;2023-02-26T09:41:31;101485.56;;;9.19
53667;BMP280;39568;51.026;5.468;2023-02-26T09:44:10;101479.06;;;6.76
53667;BMP280;39568;51.026;5.468;2023-02-26T09:46:44;101493.78;;;7.71
53667;BMP280;39568;51.026;5.468;2023-02-26T09:49:23;101487.31;;;9.22
53667;BMP280;39568;51.026;5.468;2023-02-26T09:51:53;101480.97;;;7.52
53667;BMP280;39568;51.026;5.468;2023-02-26T09:54:23;101485.16;;;7.13
53667;BMP280;39568;51.026;5.468;2023-02-26T09:56:51;101495.22;;;7.54
53667;BMP280;39568;51.026;5.468;2023-02-26T09:59:20;101497.06;;;6.99
53667;BMP280;39568;51.026;5.468;2023-02-26T10:01:54;101489.63;;;6.76
53667;BMP280;39568;51.026;5.468;2023-02-26T10:04:37;101497.50;;;6.14
53667;BMP280;39568;51.026;5.468;2023-02-26T10:07:14;101488.69;;;5.27
53667;BMP280;39568;51.026;5.468;2023-02-26T10:09:53;101501.59;;;5.00
53667;BMP280;39568;51.026;5.468;2023-02-26T10:12:25;101505.28;;;5.02
53667;BMP280;39568;51.026;5.468;2023-02-26T10:14:57;101513.38;;;5.46
53667;BMP280;39568;51.026;5.468;2023-02-26T10:17:29;101516.47;;;5.19
53667;BMP280;39568;51.026;5.468;2023-02-26T10:19:59;101527.50;;;4.64
53667;BMP280;39568;51.026;5.468;2023-02-26T10:22:32;101521.25;;;5.71
53667;BMP280;39568;51.026;5.468;2023-02-26T10:25:01;101527.09;;;5.53
53667;BMP280;39568;51.026;5.468;2023-02-26T10:27:37;101518.16;;;5.13
53667;BMP280;39568;51.026;5.468;2023-02-26T10:30:11;101525.16;;;5.79
53667;BMP280;39568;51.026;5.468;2023-02-26T10:32:42;101528.81;;;5.35
53667;BMP280;39568;51.026;5.468;2023-02-26T10:35:14;101532.00;;;6.94
53667;BMP280;39568;51.026;5.468;2023-02-26T10:37:46;101526.78;;;6.73
53667;BMP280;39568;51.026;5.468;2023-02-26T10:40:17;101532.16;;;7.49
53667;BMP280;39568;51.026;5.468;2023-02-26T10:42:47;101526.69;;;7.52
53667;BMP280;39568;51.026;5.468;2023-02-26T10:45:32;101533.06;;;6.97
53667;BMP280;39568;51.026;5.468;2023-02-26T10:48:13;101531.16;;;7.73
53667;BMP280;39568;51.026;5.468;2023-02-26T10:50:48;101532.75;;;7.80
53667;BMP280;39568;51.026;5.468;2023-02-26T10:53:15;101529.44;;;7.12
53667;BMP280;39568;51.026;5.468;2023-02-26T10:55:44;101535.75;;;6.23
53667;BMP280;39568;51.026;5.468;2023-02-26T10:58:13;101541.75;;;6.45
53667;BMP280;39568;51.026;5.468;2023-02-26T11:00:44;101534.66;;;7.43
53667;BMP280;39568;51.026;5.468;2023-02-26T11:03:15;101544.53;;;7.61
53667;BMP280;39568;51.026;5.468;2023-02-26T11:05:43;101540.53;;;8.20
53667;BMP280;39568;51.026;5.468;2023-02-26T11:08:14;101536.13;;;8.68
53667;BMP280;39568;51.026;5.468;2023-02-26T11:10:45;101551.09;;;9.36
53667;BMP280;39568;51.026;5.468;2023-02-26T11:13:13;101558.72;;;10.40
53667;BMP280;39568;51.026;5.468;2023-02-26T11:15:39;101551.19;;;10.53
53667;BMP280;39568;51.026;5.468;2023-02-26T11:18:12;101548.06;;;11.10
53667;BMP280;39568;51.026;5.468;2023-02-26T11:20:43;101557.06;;;11.78
53667;BMP280;39568;51.026;5.468;2023-02-26T11:23:12;101554.53;;;12.68
53667;BMP280;39568;51.026;5.468;2023-02-26T11:25:40;101539.47;;;12.60
53667;BMP280;39568;51.026;5.468;2023-02-26T11:28:18;101537.47;;;13.08
53667;BMP280;39568;51.026;5.468;2023-02-26T11:30:46;101545.56;;;12.66
53667;BMP280;39568;51.026;5.468;2023-02-26T11:33:21;101548.88;;;12.98
53667;BMP280;39568;51.026;5.468;2023-02-26T11:35:49;101545.59;;;11.72
53667;BMP280;39568;51.026;5.468;2023-02-26T11:38:20;101554.06;;;11.05
53667;BMP280;39568;51.026;5.468;2023-02-26T11:40:48;101562.88;;;10.12
53667;BMP280;39568;51.026;5.468;2023-02-26T11:43:19;101550.88;;;8.69
53667;BMP280;39568;51.026;5.468;2023-02-26T11:45:51;101550.38;;;6.67
53667;BMP280;39568;51.026;5.468;2023-02-26T11:48:23;101546.53;;;6.59
53667;BMP280;39568;51.026;5.468;2023-02-26T11:50:56;101552.78;;;7.81
53667;BMP280;39568;51.026;5.468;2023-02-26T11:53:25;101560.22;;;8.88
53667;BMP280;39568;51.026;5.468;2023-02-26T11:55:59;101561.75;;;9.75
53667;BMP280;39568;51.026;5.468;2023-02-26T11:58:29;101554.94;;;10.96
53667;BMP280;39568;51.026;5.468;2023-02-26T12:00:58;101562.44;;;10.28
53667;BMP280;39568;51.026;5.468;2023-02-26T12:03:30;101552.91;;;12.82
53667;BMP280;39568;51.026;5.468;2023-02-26T12:05:58;101552.56;;;14.44
53667;BMP280;39568;51.026;5.468;2023-02-26T12:08:29;101554.59;;;13.44
53667;BMP280;39568;51.026;5.468;2023-02-26T12:11:20;101557.09;;;11.58
53667;BMP280;39568;51.026;5.468;2023-02-26T12:14:00;101555.53;;;10.07
53667;BMP280;39568;51.026;5.468;2023-02-26T12:16:36;101549.94;;;8.30
53667;BMP280;39568;51.026;5.468;2023-02-26T12:19:10;101543.31;;;8.07
53667;BMP280;39568;51.026;5.468;2023-02-26T12:22:00;101549.06;;;7.42
53667;BMP280;39568;51.026;5.468;2023-02-26T12:24:44;101542.66;;;8.58
53667;BMP280;39568;51.026;5.468;2023-02-26T12:27:22;101551.94;;;8.95
53667;BMP280;39568;51.026;5.468;2023-02-26T12:30:05;101542.75;;;11.10
53667;BMP280;39568;51.026;5.468;2023-02-26T12:32:39;101550.47;;;13.65
53667;BMP280;39568;51.026;5.468;2023-02-26T12:35:33;101560.06;;;14.68
53667;BMP280;39568;51.026;5.468;2023-02-26T12:38:10;101562.63;;;14.22
53667;BMP280;39568;51.026;5.468;2023-02-26T12:40:56;101556.03;;;13.39
53667;BMP280;39568;51.026;5.468;2023-02-26T12:43:31;101559.22;;;13.93
53667;BMP280;39568;51.026;5.468;2023-02-26T12:46:03;101564.09;;;16.27
53667;BMP280;39568;51.026;5.468;2023-02-26T12:48:56;101555.47;;;18.11
53667;BMP280;39568;51.026;5.468;2023-02-26T12:51:37;101561.13;;;18.20
53667;BMP280;39568;51.026;5.468;2023-02-26T12:54:23;101561.56;;;19.46
53667;BMP280;39568;51.026;5.468;2023-02-26T12:57:16;101572.56;;;20.78
53667;BMP280;39568;51.026;5.468;2023-02-26T13:00:03;101563.84;;;16.00
53667;BMP280;39568;51.026;5.468;2023-02-26T13:05:44;101572.31;;;10.57
53667;BMP280;39568;51.026;5.468;2023-02-26T13:08:20;101556.09;;;8.78
53667;BMP280;39568;51.026;5.468;2023-02-26T13:11:04;101554.66;;;9.33
53667;BMP280;39568;51.026;5.468;2023-02-26T13:13:57;101576.69;;;9.87
53667;BMP280;39568;51.026;5.468;2023-02-26T13:16:45;101565.25;;;12.32
53667;BMP280;39568;51.026;5.468;2023-02-26T13:19:27;101563.72;;;13.15
53667;BMP280;39568;51.026;5.468;2023-02-26T13:21:57;101573.53;;;14.51
53667;BMP280;39568;51.026;5.468;2023-02-26T13:24:33;101559.69;;;16.48
53667;BMP280;39568;51.026;5.468;2023-02-26T13:27:01;101571.38;;;16.69
53667;BMP280;39568;51.026;5.468;2023-02-26T13:29:33;101561.59;;;16.90
53667;BMP280;39568;51.026;5.468;2023-02-26T13:32:04;101552.44;;;18.01
53667;BMP280;39568;51.026;5.468;2023-02-26T13:34:41;101566.16;;;18.97
53667;BMP280;39568;51.026;5.468;2023-02-26T13:37:17;101555.44;;;18.24
53667;BMP280;39568;51.026;5.468;2023-02-26T13:39:54;101561.63;;;19.33
53667;BMP280;39568;51.026;5.468;2023-02-26T13:42:28;101556.72;;;18.90
53667;BMP280;39568;51.026;5.468;2023-02-26T13:45:06;101560.00;;;17.32
53667;BMP280;39568;51.026;5.468;2023-02-26T13:50:40;101556.88;;;19.05
53667;BMP280;39568;51.026;5.468;2023-02-26T13:53:34;101548.25;;;17.16
53667;BMP280;39568;51.026;5.468;2023-02-26T13:56:07;101544.38;;;16.80
53667;BMP280;39568;51.026;5.468;2023-02-26T13:58:40;101551.06;;;17.55
53667;BMP280;39568;51.026;5.468;2023-02-26T14:01:09;101540.81;;;19.20
53667;BMP280;39568;51.026;5.468;2023-02-26T14:03:42;101540.44;;;17.00
53667;BMP280;39568;51.026;5.468;2023-02-26T14:06:34;101534.63;;;16.58
53667;BMP280;39568;51.026;5.468;2023-02-26T14:09:03;101550.69;;;14.17
53667;BMP280;39568;51.026;5.468;2023-02-26T14:11:59;101553.22;;;14.78
53667;BMP280;39568;51.026;5.468;2023-02-26T14:14:34;101555.94;;;16.32
53667;BMP280;39568;51.026;5.468;2023-02-26T14:17:27;101554.38;;;14.08
53667;BMP280;39568;51.026;5.468;2023-02-26T14:20:21;101555.31;;;15.72
53667;BMP280;39568;51.026;5.468;2023-02-26T14:22:51;101561.41;;;17.51
53667;BMP280;39568;51.026;5.468;2023-02-26T14:25:31;101551.81;;;15.53
53667;BMP280;39568;51.026;5.468;2023-02-26T14:28:34;101553.63;;;14.19
53667;BMP280;39568;51.026;5.468;2023-02-26T14:31:12;101545.94;;;15.55